Time;durP1;ratioP1;P1;durP2;ratioP2;P2;SDS_P1;SDS_P2;PMS_P1;PMS_P2;Temp;Humidity;BMP_temperature;BMP_pressure;BME280_temperature;BME280_humidity;BME280_pressure;Samples;Min_cycle;Max_cycle;Signal;HPM_P1;HPM_P2
2022/04/25 00:00:01;;;;;;;;;;;;;;;4.71;33.17;97098.84;6371534;27;19923;-63
2022/04/25 00:03:04;;;;;;;;;;;;;;;4.67;33.05;97092.03;6371590;27;19923;-63
2022/04/25 00:06:09;;;;;;;;;;;;;;;4.71;33.29;97098.84;6372153;27;20302;-64
2022/04/25 00:09:09;;;;;;;;;;;;;;;4.78;33.20;97084.66;6371290;27;19923;-63
2022/04/25 00:12:11;;;;;;;;;;;;;;;4.68;33.03;97098.94;6371029;27;19946;-64
2022/04/25 00:15:12;;;;;;;;;;;;;;;4.77;33.46;97106.41;6370849;27;19927;-64
2022/04/25 00:18:13;;;;;;;;;;;;;;;4.94;33.55;97105.78;6370650;27;19923;-64
2022/04/25 00:21:15;;;;;;;;;;;;;;;5.18;33.27;97101.38;6352932;27;20409;-63
2022/04/25 00:24:16;;;;;;;;;;;;;;;5.18;33.15;97106.59;6371188;27;19930;-63
2022/04/25 00:27:19;;;;;;;;;;;;;;;5.18;33.38;97110.03;6371300;27;19927;-64
2022/04/25 00:30:25;;;;;;;;;;;;;;;5.10;33.02;97106.03;6371613;28;19927;-64
2022/04/25 00:33:27;;;;;;;;;;;;;;;4.98;33.19;97114.31;6370148;27;19931;-65
2022/04/25 00:36:31;;;;;;;;;;;;;;;4.90;33.17;97117.25;6371499;28;19923;-63
2022/04/25 00:39:32;;;;;;;;;;;;;;;4.92;33.12;97113.63;6371648;28;19971;-64
2022/04/25 00:42:33;;;;;;;;;;;;;;;5.01;33.19;97116.81;6371396;28;19924;-64
2022/04/25 00:45:35;;;;;;;;;;;;;;;5.22;33.30;97115.97;6370551;28;19923;-64
2022/04/25 00:48:38;;;;;;;;;;;;;;;5.24;32.83;97119.38;6353576;28;20400;-64
2022/04/25 00:51:42;;;;;;;;;;;;;;;5.20;32.99;97124.78;6371554;28;19923;-64
2022/04/25 00:54:49;;;;;;;;;;;;;;;5.46;33.23;97113.28;6371150;28;19930;-64
2022/04/25 00:57:56;;;;;;;;;;;;;;;5.39;33.22;97123.97;6352446;28;20403;-64
2022/04/25 01:00:57;;;;;;;;;;;;;;;5.33;33.13;97129.44;6370444;28;19934;-64
2022/04/25 01:04:02;;;;;;;;;;;;;;;5.45;32.94;97127.25;6371415;28;20061;-64
2022/04/25 01:07:05;;;;;;;;;;;;;;;5.37;32.98;97119.72;6371187;28;19923;-65
2022/04/25 01:10:08;;;;;;;;;;;;;;;5.37;33.07;97115.34;6370028;28;19924;-64
2022/04/25 01:13:13;;;;;;;;;;;;;;;5.45;33.07;97120.28;6371037;28;19924;-64
2022/04/25 01:16:17;;;;;;;;;;;;;;;5.61;33.08;97123.13;6371338;28;19923;-64
2022/04/25 01:19:20;;;;;;;;;;;;;;;5.59;32.90;97120.56;6370391;28;19930;-64
2022/04/25 01:22:27;;;;;;;;;;;;;;;5.63;33.40;97121.28;6370377;28;19930;-64
2022/04/25 01:28:51;;;;;;;;;;;;;;;5.75;33.03;97126.00;6370953;28;19929;-64
2022/04/25 01:31:52;;;;;;;;;;;;;;;5.87;33.32;97129.88;6369888;28;19958;-64
2022/04/25 01:34:55;;;;;;;;;;;;;;;6.10;33.07;97128.91;6370116;28;19983;-64
2022/04/25 01:37:57;;;;;;;;;;;;;;;6.20;33.48;97127.63;6370310;28;20408;-64
2022/04/25 01:40:58;;;;;;;;;;;;;;;6.29;33.54;97124.59;6370823;28;19919;-65
2022/04/25 01:44:00;;;;;;;;;;;;;;;6.29;33.14;97131.59;6371509;27;19930;-64
2022/04/25 01:47:05;;;;;;;;;;;;;;;6.32;33.35;97141.91;6375453;27;19920;-63
2022/04/25 01:50:06;;;;;;;;;;;;;;;6.39;33.05;97132.03;6375335;27;19946;-64
2022/04/25 01:53:10;;;;;;;;;;;;;;;6.36;33.05;97137.38;6375020;27;20322;-64
2022/04/25 01:56:15;;;;;;;;;;;;;;;6.45;32.97;97139.59;6375158;27;19977;-65
2022/04/25 01:59:16;;;;;;;;;;;;;;;6.50;32.79;97135.00;6355865;27;19930;-64
2022/04/25 02:02:22;;;;;;;;;;;;;;;6.55;33.07;97138.28;6375114;27;19924;-64
2022/04/25 02:05:23;;;;;;;;;;;;;;;6.60;33.85;97131.09;6374316;27;19930;-64
2022/04/25 02:08:27;;;;;;;;;;;;;;;6.76;33.06;97128.59;6373740;27;19923;-64
2022/04/25 02:11:28;;;;;;;;;;;;;;;7.01;32.79;97130.94;6374624;27;19923;-64
2022/04/25 02:14:29;;;;;;;;;;;;;;;7.24;33.03;97129.03;6373733;27;20445;-64
2022/04/25 02:17:31;;;;;;;;;;;;;;;7.39;32.64;97136.16;6374323;27;19930;-64
2022/04/25 02:20:35;;;;;;;;;;;;;;;7.43;32.58;97137.69;6373534;27;19927;-64
2022/04/25 02:23:36;;;;;;;;;;;;;;;7.49;32.74;97137.41;6374321;27;19930;-64
2022/04/25 02:26:39;;;;;;;;;;;;;;;7.51;32.53;97140.81;6355206;27;20308;-64
2022/04/25 02:29:41;;;;;;;;;;;;;;;7.51;32.65;97145.19;6373782;27;19923;-65
2022/04/25 02:32:43;;;;;;;;;;;;;;;7.53;33.03;97149.44;6373931;27;19930;-64
2022/04/25 02:35:47;;;;;;;;;;;;;;;7.61;32.68;97142.06;6373834;27;19923;-64
2022/04/25 02:38:48;;;;;;;;;;;;;;;7.79;32.71;97142.06;6373626;27;19930;-64
2022/04/25 02:41:51;;;;;;;;;;;;;;;7.89;32.49;97138.06;6373726;27;19924;-64
2022/04/25 02:44:52;;;;;;;;;;;;;;;8.15;32.80;97141.13;6373085;27;19923;-64
2022/04/25 02:47:56;;;;;;;;;;;;;;;8.26;32.79;97146.69;6373820;27;19923;-64
2022/04/25 02:50:57;;;;;;;;;;;;;;;8.42;32.79;97142.38;6373270;27;19935;-64
2022/04/25 02:54:01;;;;;;;;;;;;;;;8.53;32.52;97139.22;6373367;27;20022;-65
2022/04/25 02:57:02;;;;;;;;;;;;;;;8.77;32.53;97150.16;6372130;27;20002;-64
2022/04/25 03:00:04;;;;;;;;;;;;;;;9.05;32.79;97144.28;6373098;27;19930;-64
2022/04/25 03:03:06;;;;;;;;;;;;;;;9.22;33.11;97146.84;6373084;27;19923;-64
2022/04/25 03:06:10;;;;;;;;;;;;;;;9.48;33.11;97141.91;6373089;27;20278;-64
2022/04/25 03:09:13;;;;;;;;;;;;;;;9.45;33.07;97142.09;6373047;27;20010;-65
2022/04/25 03:12:18;;;;;;;;;;;;;;;9.79;33.23;97140.16;6353886;27;20027;-64
2022/04/25 03:15:19;;;;;;;;;;;;;;;10.04;33.11;97144.88;6372367;27;19958;-64
2022/04/25 03:18:22;;;;;;;;;;;;;;;10.17;32.76;97145.84;6372998;27;19930;-65
2022/04/25 03:21:23;;;;;;;;;;;;;;;10.46;33.13;97148.56;6372551;27;19930;-64
2022/04/25 03:24:24;;;;;;;;;;;;;;;10.44;33.63;97145.16;6372813;27;19992;-64
2022/04/25 03:27:27;;;;;;;;;;;;;;;10.50;33.64;97139.53;6372291;27;19923;-64
2022/04/25 03:30:31;;;;;;;;;;;;;;;10.53;34.06;97134.94;6372589;27;19958;-65
2022/04/25 03:33:33;;;;;;;;;;;;;;;10.61;34.27;97145.00;6371596;27;19923;-64
2022/04/25 03:36:34;;;;;;;;;;;;;;;10.79;34.67;97128.09;6371506;27;19923;-63
2022/04/25 03:39:38;;;;;;;;;;;;;;;10.74;34.63;97135.41;6371443;27;19930;-64
2022/04/25 03:42:39;;;;;;;;;;;;;;;10.82;34.67;97128.84;6371590;27;19930;-64
2022/04/25 03:45:41;;;;;;;;;;;;;;;11.10;34.72;97134.09;6353776;27;20020;-65
2022/04/25 03:48:45;;;;;;;;;;;;;;;11.41;35.45;97129.50;6353060;27;19930;-64
2022/04/25 03:51:46;;;;;;;;;;;;;;;11.37;35.14;97141.16;6372189;27;19924;-65
2022/04/25 03:58:12;;;;;;;;;;;;;;;11.67;35.09;97141.84;6371852;27;20366;-64
2022/04/25 04:01:13;;;;;;;;;;;;;;;11.69;35.58;97154.91;6370779;27;19923;-64
2022/04/25 04:04:16;;;;;;;;;;;;;;;12.06;35.84;97128.81;6371731;27;19927;-64
2022/04/25 04:07:19;;;;;;;;;;;;;;;11.96;35.74;97125.09;6370135;27;19930;-64
2022/04/25 04:10:21;;;;;;;;;;;;;;;11.90;35.51;97139.53;6370176;27;20399;-64
2022/04/25 04:13:22;;;;;;;;;;;;;;;11.98;35.52;97126.69;6370695;27;19930;-65
2022/04/25 04:16:23;;;;;;;;;;;;;;;12.27;35.78;97126.53;6370729;27;20407;-64
2022/04/25 04:19:24;;;;;;;;;;;;;;;12.49;35.94;97118.84;6352759;27;19927;-65
2022/04/25 04:22:29;;;;;;;;;;;;;;;12.57;35.99;97124.44;6371475;27;19923;-65
2022/04/25 04:25:32;;;;;;;;;;;;;;;12.79;36.04;97125.56;6371712;27;19924;-64
2022/04/25 04:28:33;;;;;;;;;;;;;;;12.90;36.21;97117.75;6352320;27;19923;-64
2022/04/25 04:31:34;;;;;;;;;;;;;;;13.10;36.13;97123.41;6370342;28;19930;-64
2022/04/25 04:34:36;;;;;;;;;;;;;;;13.18;36.22;97131.63;6370631;28;19923;-64
2022/04/25 04:37:38;;;;;;;;;;;;;;;13.39;36.27;97118.72;6370565;28;19924;-63
2022/04/25 04:40:39;;;;;;;;;;;;;;;13.50;36.45;97117.94;6370766;28;19924;-64
2022/04/25 04:43:42;;;;;;;;;;;;;;;13.57;36.78;97127.13;6371492;28;19923;-65
2022/04/25 04:46:45;;;;;;;;;;;;;;;13.80;36.16;97128.91;6370129;28;19930;-64
2022/04/25 04:49:49;;;;;;;;;;;;;;;14.10;35.53;97119.66;6370305;28;19924;-64
2022/04/25 04:52:52;;;;;;;;;;;;;;;14.42;35.24;97113.72;6371206;28;19930;-64
2022/04/25 04:55:56;;;;;;;;;;;;;;;17.27;31.25;97124.88;6371210;28;19924;-64
2022/04/25 04:58:58;;;;;;;;;;;;;;;20.31;26.69;97139.03;6370279;28;19927;-64
2022/04/25 05:02:05;;;;;;;;;;;;;;;23.47;22.44;97140.25;6370968;28;19923;-64
2022/04/25 05:05:09;;;;;;;;;;;;;;;26.16;20.47;97141.56;6370988;28;19954;-65
2022/04/25 05:08:13;;;;;;;;;;;;;;;27.71;18.38;97130.75;6370804;28;19969;-64
2022/04/25 05:11:14;;;;;;;;;;;;;;;29.30;16.89;97149.13;6370468;28;20308;-65
2022/04/25 05:14:17;;;;;;;;;;;;;;;31.23;15.81;97142.66;6370734;28;19924;-64
2022/04/25 05:17:18;;;;;;;;;;;;;;;33.01;14.04;97148.78;6370201;28;20016;-64
2022/04/25 05:20:22;;;;;;;;;;;;;;;33.79;12.96;97144.00;6374646;27;19924;-65
2022/04/25 05:23:24;;;;;;;;;;;;;;;34.72;11.85;97142.00;6374909;27;19923;-65
2022/04/25 05:26:27;;;;;;;;;;;;;;;35.40;11.21;97137.34;6375450;27;19924;-65
2022/04/25 05:29:28;;;;;;;;;;;;;;;36.10;11.03;97146.78;6356381;27;20351;-64
2022/04/25 05:32:40;;;;;;;;;;;;;;;36.73;10.50;97132.66;6375429;27;19931;-64
2022/04/25 05:35:43;;;;;;;;;;;;;;;37.44;10.44;97127.69;6375455;27;19928;-65
2022/04/25 05:38:46;;;;;;;;;;;;;;;38.49;10.34;97125.97;6375323;27;19924;-64
2022/04/25 05:41:47;;;;;;;;;;;;;;;39.73;8.26;97118.19;6374372;27;19946;-65
2022/04/25 05:44:56;;;;;;;;;;;;;;;38.28;8.60;97123.16;6375055;27;19923;-65
2022/04/25 05:47:57;;;;;;;;;;;;;;;38.99;8.96;97138.13;6374389;27;19923;-65
2022/04/25 05:54:19;;;;;;;;;;;;;;;40.32;7.01;97118.50;6356141;27;19988;-65
2022/04/25 05:57:20;;;;;;;;;;;;;;;40.43;7.51;97120.09;6374362;27;19923;-64
2022/04/25 06:00:24;;;;;;;;;;;;;;;40.95;6.96;97115.84;6374179;27;20000;-65
2022/04/25 06:03:25;;;;;;;;;;;;;;;40.98;7.02;97115.25;6355501;27;20319;-65
2022/04/25 06:06:29;;;;;;;;;;;;;;;41.84;6.69;97118.28;6374627;27;20255;-64
2022/04/25 06:09:32;;;;;;;;;;;;;;;43.71;5.41;97123.13;6346547;28;20079;-64
2022/04/25 06:12:38;;;;;;;;;;;;;;;41.36;5.92;97118.25;6348712;28;19924;-64
2022/04/25 06:15:40;;;;;;;;;;;;;;;38.60;7.20;97111.13;6348248;27;19923;-64
2022/04/25 06:18:41;;;;;;;;;;;;;;;39.33;6.90;97107.31;6348028;28;19931;-65
2022/04/25 06:21:47;;;;;;;;;;;;;;;40.30;5.97;97104.19;6348435;28;19923;-64
2022/04/25 06:24:48;;;;;;;;;;;;;;;39.40;6.47;97107.81;6348180;28;19930;-65
2022/04/25 06:27:51;;;;;;;;;;;;;;;38.82;7.10;97100.69;6347816;28;19924;-66
2022/04/25 06:30:58;;;;;;;;;;;;;;;40.55;6.03;97098.50;6347526;28;20296;-65
2022/04/25 06:33:59;;;;;;;;;;;;;;;40.81;5.30;97109.34;6348229;28;19948;-66
2022/04/25 06:37:03;;;;;;;;;;;;;;;36.57;7.46;97091.38;6348340;28;20397;-65
2022/04/25 06:40:04;;;;;;;;;;;;;;;32.23;9.66;97080.81;6346414;28;20316;-67
2022/04/25 06:43:13;;;;;;;;;;;;;;;29.96;10.84;97083.00;6348125;28;19924;-64
2022/04/25 06:46:16;;;;;;;;;;;;;;;28.01;11.97;97070.13;6347872;28;20265;-65
2022/04/25 06:49:20;;;;;;;;;;;;;;;26.85;12.79;97060.81;6348031;28;19931;-64
2022/04/25 06:52:22;;;;;;;;;;;;;;;26.67;12.70;97062.34;6348137;28;19923;-64
2022/04/25 06:55:25;;;;;;;;;;;;;;;26.62;13.20;97058.38;6347306;28;19924;-63
2022/04/25 06:58:29;;;;;;;;;;;;;;;30.99;10.81;97061.97;6347714;28;19924;-65
2022/04/25 07:01:30;;;;;;;;;;;;;;;35.88;8.03;97077.50;6347301;28;19924;-66
2022/04/25 07:04:32;;;;;;;;;;;;;;;38.34;7.26;97072.59;6347502;28;19923;-66
2022/04/25 07:07:38;;;;;;;;;;;;;;;39.13;6.40;97064.94;6347646;28;19924;-65
2022/04/25 07:10:41;;;;;;;;;;;;;;;38.87;6.78;97071.56;6371803;27;20292;-64
2022/04/25 07:13:44;;;;;;;;;;;;;;;40.37;6.13;97079.84;6372196;27;19924;-65
2022/04/25 07:16:45;;;;;;;;;;;;;;;40.30;5.78;97088.47;6372445;27;20007;-65
2022/04/25 07:19:49;;;;;;;;;;;;;;;39.83;6.00;97072.44;6372905;27;19923;-65
2022/04/25 07:29:32;;;;;;;;;;;;;;;39.12;6.57;97063.25;6372029;27;19929;-66
2022/04/25 07:32:40;;;;;;;;;;;;;;;38.74;6.80;97062.75;6372622;27;20388;-65
2022/04/25 07:35:46;;;;;;;;;;;;;;;41.84;5.70;97060.25;6372709;27;20304;-66
2022/04/25 07:38:54;;;;;;;;;;;;;;;44.35;4.58;97069.66;6372520;27;20010;-65
2022/04/25 07:41:55;;;;;;;;;;;;;;;43.71;4.44;97056.63;6371172;27;19984;-65
2022/04/25 07:45:02;;;;;;;;;;;;;;;38.95;6.16;97052.56;6372234;27;19981;-65
2022/04/25 07:48:10;;;;;;;;;;;;;;;36.52;7.75;97039.25;6372075;27;19930;-64
2022/04/25 07:51:13;;;;;;;;;;;;;;;39.23;5.79;97031.84;6354190;27;19919;-66
2022/04/25 07:54:15;;;;;;;;;;;;;;;40.81;5.19;97037.63;6371391;27;19924;-66
2022/04/25 07:57:19;;;;;;;;;;;;;;;40.00;5.61;97039.81;6371261;27;19919;-65
2022/04/25 08:00:20;;;;;;;;;;;;;;;40.31;5.36;97034.13;6371560;27;20303;-66
2022/04/25 08:03:21;;;;;;;;;;;;;;;40.97;4.84;97028.09;6372084;27;19926;-66
2022/04/25 08:06:23;;;;;;;;;;;;;;;41.97;5.10;97036.59;6371306;27;19924;-65
2022/04/25 08:09:24;;;;;;;;;;;;;;;42.93;4.41;97029.84;6352270;27;20415;-65
2022/04/25 08:19:08;;;;;;;;;;;;;;;44.77;3.59;97050.91;6370970;27;20000;-65
2022/04/25 08:22:13;;;;;;;;;;;;;;;43.76;3.56;97029.91;6371563;27;19923;-64
2022/04/25 08:25:18;;;;;;;;;;;;;;;40.46;4.97;97014.72;6370946;27;20325;-65
2022/04/25 08:28:20;;;;;;;;;;;;;;;39.74;5.52;97020.66;6371333;27;19931;-65
2022/04/25 08:31:21;;;;;;;;;;;;;;;37.05;6.31;97010.03;6352082;28;20508;-65
2022/04/25 08:34:25;;;;;;;;;;;;;;;35.33;7.25;97005.38;6353666;28;19928;-64
2022/04/25 08:37:29;;;;;;;;;;;;;;;36.14;6.72;96994.53;6371436;28;19935;-65
2022/04/25 08:40:32;;;;;;;;;;;;;;;37.62;5.78;96991.91;6370193;28;19923;-65
2022/04/25 08:43:37;;;;;;;;;;;;;;;37.85;6.54;96985.13;6371338;28;19930;-65
2022/04/25 08:46:43;;;;;;;;;;;;;;;37.55;6.50;96990.53;6370496;28;19924;-65
2022/04/25 08:49:45;;;;;;;;;;;;;;;39.48;5.72;96999.88;6370560;28;19923;-65
2022/04/25 08:52:46;;;;;;;;;;;;;;;39.86;5.95;97001.09;6371662;27;19924;-66
2022/04/25 08:55:50;;;;;;;;;;;;;;;37.11;7.13;97012.81;6358276;27;19923;-65
2022/04/25 08:58:52;;;;;;;;;;;;;;;37.62;6.99;97005.66;6375619;27;19923;-65
2022/04/25 09:01:55;;;;;;;;;;;;;;;39.99;6.08;97010.63;6376222;27;20300;-64
2022/04/25 09:04:56;;;;;;;;;;;;;;;41.22;5.52;97006.84;6375415;27;20017;-66
2022/04/25 09:08:02;;;;;;;;;;;;;;;40.61;5.95;97014.59;6376160;27;19923;-66
2022/04/25 09:14:26;;;;;;;;;;;;;;;39.50;6.50;97011.44;6375781;27;19924;-65
2022/04/25 09:17:28;;;;;;;;;;;;;;;38.32;6.92;96995.09;6374885;27;20308;-65
2022/04/25 09:20:31;;;;;;;;;;;;;;;37.01;7.55;96984.25;6375927;27;19919;-65
2022/04/25 09:23:35;;;;;;;;;;;;;;;34.23;9.23;96980.50;6356484;27;20288;-66
2022/04/25 09:26:40;;;;;;;;;;;;;;;30.90;11.24;96979.13;6375633;27;19923;-66
2022/04/25 09:29:42;;;;;;;;;;;;;;;31.31;11.04;96981.97;6374942;27;19923;-65
2022/04/25 09:32:47;;;;;;;;;;;;;;;33.73;9.35;96967.56;6375633;27;20361;-64
2022/04/25 09:35:53;;;;;;;;;;;;;;;35.43;8.41;96977.31;6375248;27;20303;-65
2022/04/25 09:38:54;;;;;;;;;;;;;;;33.46;9.44;96973.59;6375260;27;19923;-65
2022/04/25 09:41:56;;;;;;;;;;;;;;;31.87;10.23;96982.66;6356148;27;19930;-65
2022/04/25 09:45:02;;;;;;;;;;;;;;;31.33;10.83;96979.81;6375383;27;19927;-66
2022/04/25 09:48:09;;;;;;;;;;;;;;;32.29;10.25;96970.97;6375031;27;19923;-65
2022/04/25 09:51:14;;;;;;;;;;;;;;;31.36;10.89;96988.63;6374974;27;20401;-65
2022/04/25 09:54:24;;;;;;;;;;;;;;;27.47;13.34;96963.69;6374819;27;20331;-66
2022/04/25 09:57:29;;;;;;;;;;;;;;;26.01;14.37;96962.81;6374157;27;19927;-65
2022/04/25 10:00:36;;;;;;;;;;;;;;;27.02;13.81;96971.41;6374955;27;19923;-64
2022/04/25 10:03:38;;;;;;;;;;;;;;;25.75;14.70;96969.59;6374106;27;19924;-63
2022/04/25 10:06:39;;;;;;;;;;;;;;;25.23;15.75;96970.72;6373298;27;20372;-64
2022/04/25 10:09:43;;;;;;;;;;;;;;;24.97;15.74;96972.03;6374462;27;20416;-64
2022/04/25 10:12:45;;;;;;;;;;;;;;;24.74;15.97;96955.16;6373443;27;19930;-64
2022/04/25 10:15:46;;;;;;;;;;;;;;;24.16;16.11;96963.81;6373361;27;19927;-65
2022/04/25 10:18:48;;;;;;;;;;;;;;;23.70;16.80;96960.31;6373800;27;19930;-65
2022/04/25 10:21:52;;;;;;;;;;;;;;;22.88;17.89;96959.97;6374044;27;19927;-65
2022/04/25 10:24:57;;;;;;;;;;;;;;;22.96;17.87;96965.31;6374111;27;19923;-64
2022/04/25 10:28:16;;;;;;;;;;;;;;;23.89;17.60;96942.88;6374192;27;19924;-65
2022/04/25 10:31:44;;;;;;;;;;;;;;;23.95;17.35;96959.16;6374179;27;19924;-65
2022/04/25 10:34:54;;;;;;;;;;;;;;;23.26;17.73;96952.91;6373315;27;19930;-65
2022/04/25 10:37:57;;;;;;;;;;;;;;;22.51;18.73;96948.03;6373991;27;19923;-64
2022/04/25 10:44:17;;;;;;;;;;;;;;;22.45;18.75;96951.38;6355016;27;20285;-64
2022/04/25 10:47:20;;;;;;;;;;;;;;;22.60;18.81;96946.97;6373264;27;19931;-65
2022/04/25 10:50:21;;;;;;;;;;;;;;;22.82;18.95;96962.31;6372927;27;19925;-66
2022/04/25 10:53:42;;;;;;;;;;;;;;;22.34;19.17;96945.38;6372388;27;19923;-66
2022/04/25 10:57:15;;;;;;;;;;;;;;;22.19;19.15;96952.44;6372394;27;19932;-65
2022/04/25 11:00:43;;;;;;;;;;;;;;;22.73;19.26;96957.16;6318759;27;19927;-66
2022/04/25 11:04:04;;;;;;;;;;;;;;;23.11;18.77;96947.44;6361127;27;19919;-65
2022/04/25 11:07:22;;;;;;;;;;;;;;;25.56;16.72;96951.38;6373570;27;20060;-65
2022/04/25 11:10:42;;;;;;;;;;;;;;;26.56;16.06;96955.78;6372947;27;19923;-65
2022/04/25 11:13:49;;;;;;;;;;;;;;;25.37;16.71;96960.94;6373215;27;19930;-65
2022/04/25 11:17:06;;;;;;;;;;;;;;;24.25;17.92;96950.28;6372235;27;19923;-64
2022/04/25 11:20:07;;;;;;;;;;;;;;;24.31;17.91;96957.63;6372092;27;19923;-65
2022/04/25 11:23:26;;;;;;;;;;;;;;;23.88;18.50;96954.66;6371945;27;20186;-65
2022/04/25 11:26:30;;;;;;;;;;;;;;;22.97;19.40;96956.25;6355079;27;19923;-65
2022/04/25 11:29:31;;;;;;;;;;;;;;;22.37;19.57;96955.75;6372135;27;19924;-65
2022/04/25 11:32:37;;;;;;;;;;;;;;;23.23;19.02;96953.25;6371938;27;20004;-66
2022/04/25 11:35:39;;;;;;;;;;;;;;;23.24;18.79;96968.34;6371896;27;19930;-65
2022/04/25 11:42:06;;;;;;;;;;;;;;;22.23;20.09;96964.50;6371580;27;20017;-66
2022/04/25 11:45:07;;;;;;;;;;;;;;;21.56;21.26;96966.50;6372266;27;19923;-65
2022/04/25 11:48:12;;;;;;;;;;;;;;;21.13;21.69;96976.44;6372370;27;19923;-64
2022/04/25 11:51:21;;;;;;;;;;;;;;;20.49;22.31;96962.59;6370860;27;20427;-65
2022/04/25 11:54:24;;;;;;;;;;;;;;;20.36;22.45;96968.38;6371474;27;20380;-65
2022/04/25 11:57:37;;;;;;;;;;;;;;;20.09;22.64;96972.88;6371407;27;19923;-65
2022/04/25 12:00:43;;;;;;;;;;;;;;;20.12;22.94;96977.91;6372192;27;19949;-65
2022/04/25 12:03:44;;;;;;;;;;;;;;;19.96;23.36;96967.97;6370373;27;19923;-64
2022/04/25 12:06:50;;;;;;;;;;;;;;;19.93;23.67;96976.28;6371746;27;19923;-64
2022/04/25 12:16:33;;;;;;;;;;;;;;;19.79;24.31;96986.66;6371328;27;19930;-65
2022/04/25 12:19:36;;;;;;;;;;;;;;;19.68;24.48;96971.75;6371615;27;19923;-65
2022/04/25 12:22:50;;;;;;;;;;;;;;;19.59;24.54;96973.47;6371479;27;20308;-65
2022/04/25 12:25:54;;;;;;;;;;;;;;;19.55;24.44;96982.78;6371249;27;19923;-65
2022/04/25 12:29:00;;;;;;;;;;;;;;;19.56;24.29;96987.13;6370274;27;20019;-66
2022/04/25 12:32:03;;;;;;;;;;;;;;;19.51;24.67;96978.75;6370405;27;19924;-65
2022/04/25 12:35:16;;;;;;;;;;;;;;;19.34;24.95;96977.75;6370553;28;19923;-65
2022/04/25 12:38:36;;;;;;;;;;;;;;;19.21;24.97;96978.09;6370251;28;19930;-65
2022/04/25 12:41:39;;;;;;;;;;;;;;;19.32;24.94;96989.56;6370205;28;19923;-65
2022/04/25 12:44:40;;;;;;;;;;;;;;;19.35;25.21;96986.59;6370187;28;20296;-65
2022/04/25 12:47:44;;;;;;;;;;;;;;;19.31;25.48;96990.56;6370249;28;19923;-68
2022/04/25 12:50:48;;;;;;;;;;;;;;;19.16;25.66;97007.03;6370565;28;19992;-64
2022/04/25 12:53:49;;;;;;;;;;;;;;;19.21;25.41;96994.09;6370293;28;20023;-66
2022/04/25 12:56:52;;;;;;;;;;;;;;;19.11;24.98;96998.69;6370157;28;19923;-65
2022/04/25 12:59:53;;;;;;;;;;;;;;;18.96;25.41;96994.81;6352714;28;19923;-65
2022/04/25 13:03:02;;;;;;;;;;;;;;;18.93;26.07;96995.13;6370842;28;19923;-65
2022/04/25 13:06:03;;;;;;;;;;;;;;;18.61;26.33;96996.38;6370416;28;19946;-66
2022/04/25 13:09:04;;;;;;;;;;;;;;;18.39;26.81;97001.06;6369988;28;19924;-67
2022/04/25 13:12:15;;;;;;;;;;;;;;;18.25;27.12;97017.50;6369987;28;20022;-66
2022/04/25 13:15:23;;;;;;;;;;;;;;;18.49;27.34;97013.53;6370594;28;19947;-68
2022/04/25 13:18:26;;;;;;;;;;;;;;;18.42;27.79;97004.41;6370447;28;20437;-65
2022/04/25 13:21:37;;;;;;;;;;;;;;;18.06;27.73;97017.53;6370685;28;19923;-65
2022/04/25 13:24:40;;;;;;;;;;;;;;;18.01;28.06;97014.47;6370059;28;19923;-66
2022/04/25 13:27:42;;;;;;;;;;;;;;;17.92;28.38;97025.00;6351789;28;19923;-65
2022/04/25 13:30:46;;;;;;;;;;;;;;;17.67;28.61;97012.22;6370615;28;19919;-65
2022/04/25 13:33:50;;;;;;;;;;;;;;;17.59;29.00;97017.41;6370546;28;20420;-65
2022/04/25 13:36:54;;;;;;;;;;;;;;;17.57;29.35;97027.34;6369634;28;19924;-65
2022/04/25 13:39:58;;;;;;;;;;;;;;;17.38;29.52;97018.38;6372619;27;19972;-64
2022/04/25 13:43:02;;;;;;;;;;;;;;;17.07;29.94;97020.28;6375442;27;19923;-65
2022/04/25 13:46:04;;;;;;;;;;;;;;;17.05;30.96;97017.75;6375204;27;20017;-65
2022/04/25 13:49:09;;;;;;;;;;;;;;;17.22;29.73;97018.06;6375180;27;20347;-68
2022/04/25 13:52:11;;;;;;;;;;;;;;;17.23;30.00;97019.75;6375031;27;19964;-65
2022/04/25 13:55:12;;;;;;;;;;;;;;;17.24;30.02;97005.47;6375187;27;20384;-65
2022/04/25 13:58:13;;;;;;;;;;;;;;;17.23;30.28;97014.41;6374930;27;19926;-65
2022/04/25 14:01:20;;;;;;;;;;;;;;;17.46;29.87;97004.38;6374924;27;19962;-64
2022/04/25 14:04:25;;;;;;;;;;;;;;;17.69;29.60;97000.47;6374475;27;19919;-65
2022/04/25 14:07:28;;;;;;;;;;;;;;;18.02;28.93;97005.50;6356503;27;19923;-64
2022/04/25 14:10:32;;;;;;;;;;;;;;;18.19;29.15;97007.44;6374120;27;19954;-64
2022/04/25 14:13:33;;;;;;;;;;;;;;;18.32;29.35;97023.13;6373746;27;20384;-64
2022/04/25 14:16:37;;;;;;;;;;;;;;;17.88;29.61;97007.59;6374285;27;19923;-64
2022/04/25 14:19:38;;;;;;;;;;;;;;;17.83;30.06;97007.19;6372696;27;19930;-64
2022/04/25 14:22:39;;;;;;;;;;;;;;;17.56;29.95;96999.91;6374071;27;19960;-64
2022/04/25 14:25:40;;;;;;;;;;;;;;;17.41;30.36;97002.13;6373241;27;20308;-66
2022/04/25 14:28:44;;;;;;;;;;;;;;;17.12;30.68;97001.25;6373988;27;19924;-65
2022/04/25 14:31:47;;;;;;;;;;;;;;;16.94;30.94;97015.19;6374178;27;19923;-66
2022/04/25 14:34:49;;;;;;;;;;;;;;;16.73;31.41;96995.78;6373211;27;19930;-65
2022/04/25 14:37:50;;;;;;;;;;;;;;;16.43;31.73;96989.53;6373241;27;19930;-64
2022/04/25 14:40:53;;;;;;;;;;;;;;;16.25;31.97;97001.72;6373034;27;19930;-64
2022/04/25 14:43:54;;;;;;;;;;;;;;;16.16;32.51;97003.34;6373085;27;19923;-65
2022/04/25 14:46:56;;;;;;;;;;;;;;;15.84;32.35;97006.09;6372510;27;20426;-64
2022/04/25 14:56:40;;;;;;;;;;;;;;;15.58;33.17;97014.38;6373193;27;19923;-64
2022/04/25 14:59:41;;;;;;;;;;;;;;;15.58;33.39;97009.06;6373251;27;19930;-66
2022/04/25 15:02:42;;;;;;;;;;;;;;;15.49;33.37;97005.38;6373214;27;19923;-67
2022/04/25 15:05:43;;;;;;;;;;;;;;;15.39;33.50;97015.03;6372436;27;19983;-67
2022/04/25 15:08:48;;;;;;;;;;;;;;;15.33;33.50;97010.25;6372073;27;19923;-65
2022/04/25 15:11:49;;;;;;;;;;;;;;;15.19;33.44;97014.03;6372130;27;19946;-67
2022/04/25 15:14:50;;;;;;;;;;;;;;;15.13;33.60;97019.81;6373066;27;20017;-64
2022/04/25 15:17:53;;;;;;;;;;;;;;;15.12;33.71;97020.81;6373051;27;19915;-64
2022/04/25 15:20:54;;;;;;;;;;;;;;;15.05;33.86;97022.25;6372442;27;19988;-65
2022/04/25 15:23:56;;;;;;;;;;;;;;;15.15;34.49;97025.84;6372252;27;19927;-70
2022/04/25 15:26:57;;;;;;;;;;;;;;;15.03;34.52;97019.75;6353712;27;19924;-70
2022/04/25 15:30:01;;;;;;;;;;;;;;;14.85;34.51;97017.72;6371707;27;20424;-70
2022/04/25 15:33:28;;;;;;;;;;;;;;;14.80;34.44;97024.22;6373437;27;19923;-70
2022/04/25 15:40:40;;;;;;;;;;;;;;;14.67;34.82;97026.16;6371885;27;19934;-70
2022/04/25 15:44:32;;;;;;;;;;;;;;;14.66;34.48;97023.63;6358826;27;19924;-70
2022/04/25 15:48:09;;;;;;;;;;;;;;;14.65;34.33;97020.13;6371177;27;19924;-70
2022/04/25 15:51:49;;;;;;;;;;;;;;;14.68;34.55;97030.47;6322149;27;19968;-65
2022/04/25 15:58:09;;;;;;;;;;;;;;;14.74;35.02;97035.28;6371430;27;19930;-65
2022/04/25 16:01:13;;;;;;;;;;;;;;;14.58;34.97;97040.97;6371990;27;19923;-64
2022/04/25 16:04:14;;;;;;;;;;;;;;;14.59;35.14;97041.81;6371187;27;20442;-64
2022/04/25 16:07:16;;;;;;;;;;;;;;;14.54;35.38;97043.97;6371953;27;19930;-65
2022/04/25 16:10:24;;;;;;;;;;;;;;;14.57;35.48;97043.72;6371694;27;20299;-64
2022/04/25 16:13:27;;;;;;;;;;;;;;;14.51;35.39;97039.72;6353754;27;20277;-65
2022/04/25 16:16:28;;;;;;;;;;;;;;;14.48;35.54;97052.38;6352730;27;19923;-65
2022/04/25 16:19:30;;;;;;;;;;;;;;;14.43;35.48;97046.56;6370606;27;20315;-65
2022/04/25 16:22:33;;;;;;;;;;;;;;;14.50;36.45;97050.44;6371735;27;19923;-63
2022/04/25 16:25:36;;;;;;;;;;;;;;;14.75;36.06;97047.59;6371523;27;19923;-65
2022/04/25 16:28:39;;;;;;;;;;;;;;;14.63;36.68;97053.84;6371510;27;19923;-65
2022/04/25 16:31:40;;;;;;;;;;;;;;;14.40;36.44;97052.09;6371386;27;19924;-65
2022/04/25 16:34:45;;;;;;;;;;;;;;;14.28;36.48;97054.75;6371382;27;19923;-65
2022/04/25 16:37:49;;;;;;;;;;;;;;;14.21;36.65;97053.53;6370537;28;19924;-64
2022/04/25 16:40:55;;;;;;;;;;;;;;;14.33;37.11;97059.69;6372002;28;19923;-66
2022/04/25 16:43:56;;;;;;;;;;;;;;;14.06;37.20;97046.75;6371577;28;19923;-64
2022/04/25 16:46:59;;;;;;;;;;;;;;;13.93;37.38;97054.78;6353485;28;19924;-65
2022/04/25 16:50:05;;;;;;;;;;;;;;;13.84;37.71;97045.75;6371487;28;20406;-65
2022/04/25 16:53:08;;;;;;;;;;;;;;;13.76;38.15;97053.41;6371345;28;19931;-65
2022/04/25 16:56:11;;;;;;;;;;;;;;;14.00;38.07;97040.13;6371528;28;20300;-64